Latest Weather Observations for Moree

IDN60801

Issued at 12:42 pm EDT Thursday 24 October 2019 (issued every 10 minutes, with the page automatically refreshed every 10 minutes)

About weather observations | Map of weather stations | Latest weather observations for NSW | Other Formats
Station Details ID: 053115 Name: MOREE AERO Lat: -29.49 Lon: 149.85 Height: 213.0 m
Data from the previous 72 hours. | See also: Recent months at Moree
Date/Time
EDT
Temp
°C
App
Temp
°C
Dew
Point
°C
Rel
Hum
%
Delta-T
°C
Wind Press
QNH
hPa
Press
MSL
hPa
Rain since
9am
mm
Dir  Spd
km/h
Gust
km/h
Spd
kts
Gust
kts
24/12:30pm 29.5 27.3 8.0 26 11.8 NNW 9 24 5 13 1020.1 1019.4 0.0
24/12:00pm 29.9 26.8 8.9 27 11.7 N 15 28 8 15 1020.6 1019.9 0.0
24/11:30am 27.9 23.9 9.2 31 10.4 NNE 20 32 11 17 1021.0 1020.3 0.0
24/11:00am 27.8 24.5 9.6 32 10.2 N 17 28 9 15 1021.3 1020.6 0.0
24/10:30am 26.0 21.0 9.4 35 9.2 NNE 26 35 14 19 1021.7 1021.0 0.0
24/10:00am 24.9 20.3 9.6 38 8.4 NNE 24 32 13 17 1021.9 1021.2 0.0
24/09:30am 23.3 18.6 9.3 41 7.6 N 24 35 13 19 1022.1 1021.4 0.0
24/09:00am 22.9 18.4 10.0 44 7.1 N 24 30 13 16 1022.2 1021.5 0.0
24/08:30am 21.4 17.1 9.3 46 6.5 NNE 22 28 12 15 1022.0 1021.3 0.0
24/08:00am 20.2 15.5 9.2 49 5.9 NNE 24 32 13 17 1021.7 1021.0 0.0
24/07:30am 19.0 14.9 8.6 51 5.5 NE 20 28 11 15 1021.3 1020.6 0.0
24/07:00am 18.0 13.7 8.0 52 5.1 NE 20 24 11 13 1020.9 1020.2 0.0
24/06:30am 17.7 13.4 7.7 52 5.1 NE 20 26 11 14 1020.3 1019.6 0.0
24/06:00am 18.0 13.2 7.4 50 5.4 NNE 22 28 12 15 1020.0 1019.3 0.0
24/05:30am 18.6 13.4 7.4 48 5.7 NNE 24 30 13 16 1019.7 1019.0 0.0
24/05:00am 19.0 13.8 7.4 47 5.9 NNE 24 32 13 17 1019.4 1018.7 0.0
24/04:30am 19.3 13.3 7.1 45 6.2 NNE 28 33 15 18 1019.3 1018.6 0.0
24/04:00am 19.7 14.4 6.8 43 6.6 NNE 24 30 13 16 1019.3 1018.6 0.0
24/03:30am 20.2 14.5 6.5 41 7.0 NE 26 32 14 17 1019.5 1018.8 0.0
24/03:00am 20.3 14.7 5.5 38 7.4 NNE 24 30 13 16 1019.6 1018.9 0.0
24/02:30am 20.6 14.4 4.2 34 8.0 NNE 26 30 14 16 1019.7 1019.0 0.0
24/02:00am 20.4 15.0 2.7 31 8.3 NE 20 26 11 14 1019.8 1019.1 0.0
24/01:30am 20.8 15.5 1.6 28 8.9 NE 19 26 10 14 1019.9 1019.2 0.0
24/01:00am 20.6 15.2 1.0 27 8.9 NE 19 28 10 15 1020.1 1019.4 0.0
24/12:30am 19.0 15.1 1.1 30 8.1 ESE 11 13 6 7 1019.6 1018.9 0.0
24/12:00am 18.6 16.3 0.7 30 8.0 NNE 2 6 1 3 1019.8 1019.1 0.0
 
Date/Time
EDT
Temp
°C
App
Temp
°C
Dew
Point
°C
Rel
Hum
%
Delta-T
°C
Wind Press
QNH
hPa
Press
MSL
hPa
Rain since
9am
mm
Dir  Spd
km/h
Gust
km/h
Spd
kts
Gust
kts
23/11:30pm 20.1 17.4 2.5 31 8.3 N 6 7 3 4 1020.0 1019.3 0.0
23/11:00pm 20.4 17.1 2.3 30 8.5 NNE 9 11 5 6 1020.0 1019.3 0.0
23/10:30pm 21.1 17.9 2.9 30 8.7 N 9 11 5 6 1020.1 1019.4 0.0
23/10:00pm 22.0 19.1 4.6 32 8.6 N 9 11 5 6 1020.1 1019.4 0.0
23/09:30pm 22.4 19.9 4.5 31 8.9 N 7 9 4 5 1020.0 1019.3 0.0
23/09:00pm 23.1 20.5 4.1 29 9.4 N 7 9 4 5 1019.8 1019.1 0.0
23/08:30pm 23.9 21.2 3.8 27 10.0 N 7 9 4 5 1019.6 1018.9 0.0
23/08:00pm 24.8 22.1 3.5 25 10.5 NNE 7 9 4 5 1019.4 1018.7 0.0
23/07:30pm 26.3 24.3 2.3 21 11.8 N 2 9 1 5 1019.3 1018.6 0.0
23/07:00pm 28.5 25.4 1.1 17 13.3 NNW 7 11 4 6 1019.0 1018.3 0.0
23/06:30pm 29.2 26.2 1.7 17 13.6 N 7 15 4 8 1018.7 1018.0 0.0
23/06:00pm 29.7 26.6 0.3 15 14.2 ESE 6 11 3 6 1018.6 1017.9 0.0
23/05:30pm 29.7 25.9 -0.6 14 14.4 ESE 9 17 5 9 1018.5 1017.8 0.0
23/05:00pm 30.3 26.5 1.7 16 14.2 ENE 11 17 6 9 1018.6 1017.9 0.0
23/04:30pm 29.0 24.9 2.3 18 13.3 ESE 13 20 7 11 1018.7 1018.0 0.0
23/04:00pm 30.7 26.9 3.7 18 13.9 N 13 28 7 15 1019.1 1018.4 0.0
23/03:30pm 30.4 26.9 3.4 18 13.8 NE 11 26 6 14 1019.4 1018.7 0.0
23/03:00pm 29.3 25.9 4.0 20 13.0 NNE 11 24 6 13 1019.8 1019.1 0.0
23/02:30pm 29.6 26.5 5.6 22 12.7 NE 11 19 6 10 1020.4 1019.7 0.0
23/02:00pm 30.0 26.9 7.2 24 12.4 ENE 13 28 7 15 1021.0 1020.3 0.0
23/01:30pm 28.9 25.9 7.5 26 11.7 NNE 13 20 7 11 1021.7 1021.0 0.0
23/01:00pm 28.2 25.1 7.4 27 11.2 NNE 13 28 7 15 1022.3 1021.6 0.0
23/12:30pm 26.9 23.2 7.9 30 10.3 NNE 17 28 9 15 1022.7 1022.0 0.0
23/12:00pm 26.5 23.3 8.5 32 9.8 N 15 26 8 14 1023.3 1022.6 0.0
23/11:30am 25.8 22.2 8.3 33 9.5 N 17 26 9 14 1024.0 1023.3 0.0
23/11:00am 25.5 21.1 8.9 35 9.1 N 22 35 12 19 1024.4 1023.7 0.0
23/10:30am 23.9 19.3 9.5 40 7.9 NNE 24 33 13 18 1024.8 1024.1 0.0
23/10:00am 23.3 19.0 10.7 45 7.0 N 24 33 13 18 1025.0 1024.3 0.0
23/09:30am 22.5 17.4 10.6 47 6.6 NNE 28 37 15 20 1025.0 1024.3 0.0
23/09:00am 21.5 16.1 10.9 51 5.9 NNE 30 39 16 21 1024.9 1024.2 0.0
23/08:30am 20.1 14.7 10.8 55 5.1 N 30 37 16 20 1024.8 1024.1 0.0
23/08:00am 19.3 14.0 11.1 59 4.5 NNE 30 39 16 21 1024.4 1023.7 0.0
23/07:30am 18.8 14.5 10.9 60 4.3 NNE 24 32 13 17 1024.2 1023.5 0.0
23/07:00am 17.9 13.9 10.5 62 4.0 NNE 22 30 12 16 1023.9 1023.2 0.0
23/06:30am 17.6 13.9 10.2 62 4.0 NNE 20 26 11 14 1023.4 1022.7 0.0
23/06:00am 17.6 13.8 9.8 60 4.1 NE 20 28 11 15 1023.0 1022.3 0.0
23/05:30am 17.7 14.7 9.1 57 4.5 NE 15 19 8 10 1022.9 1022.2 0.0
23/05:00am 18.4 15.1 9.5 56 4.7 NE 17 22 9 12 1022.5 1021.8 0.0
23/04:30am 18.2 14.6 8.5 53 5.1 NE 17 19 9 10 1022.1 1021.4 0.0
23/04:00am 18.8 15.1 7.9 49 5.6 NE 17 20 9 11 1021.8 1021.1 0.0
23/03:30am 18.6 14.5 6.4 45 6.1 NE 17 20 9 11 1021.6 1020.9 0.0
23/03:00am 19.2 15.1 6.0 42 6.6 NE 17 19 9 10 1021.3 1020.6 0.0
23/02:30am 20.2 15.0 5.4 38 7.4 NE 22 28 12 15 1021.2 1020.5 0.0
23/02:00am 20.4 15.4 3.6 33 8.1 NNE 19 26 10 14 1021.3 1020.6 0.0
23/01:30am 20.7 15.4 3.0 31 8.4 NE 20 26 11 14 1021.7 1021.0 0.0
23/01:00am 17.8 11.4 0.9 32 7.5 E 24 33 13 18 1021.6 1020.9 0.0
23/12:30am 17.1 14.9 1.1 34 7.1 NNE 2 7 1 4 1021.3 1020.6 0.0
23/12:00am 18.4 16.5 0.5 30 7.9 CALM 0 0 0 0 1021.6 1020.9 0.0
 
Date/Time
EDT
Temp
°C
App
Temp
°C
Dew
Point
°C
Rel
Hum
%
Delta-T
°C
Wind Press
QNH
hPa
Press
MSL
hPa
Rain since
9am
mm
Dir  Spd
km/h
Gust
km/h
Spd
kts
Gust
kts
22/11:30pm 19.1 17.7 3.3 35 7.5 CALM 0 6 0 3 1021.6 1020.9 0.0
22/11:00pm 19.3 17.8 3.1 34 7.6 CALM 0 0 0 0 1021.6 1020.9 0.0
22/10:30pm 19.6 16.9 3.7 35 7.6 NW 7 9 4 5 1021.6 1020.9 0.0
22/10:00pm 20.9 18.4 3.6 32 8.3 NW 6 7 3 4 1021.5 1020.8 0.0
22/09:30pm 21.9 19.2 3.6 30 8.9 NW 7 9 4 5 1021.3 1020.6 0.0
22/09:00pm 23.1 19.6 3.6 28 9.5 NW 11 11 6 6 1021.2 1020.5 0.0
22/08:30pm 23.9 20.8 3.8 27 10.0 NW 9 11 5 6 1020.9 1020.2 0.0
22/08:00pm 23.7 20.5 3.1 26 10.0 NNW 9 9 5 5 1020.8 1020.1 0.0
22/07:30pm 25.4 22.8 3.4 24 10.9 W 6 7 3 4 1020.6 1019.9 0.0
22/07:00pm 27.5 24.7 1.8 19 12.5 SSW 6 7 3 4 1020.2 1019.5 0.0
22/06:30pm 28.2 25.8 2.4 19 12.8 ESE 4 11 2 6 1020.1 1019.4 0.0
22/06:00pm 28.8 25.8 2.1 18 13.2 S 7 11 4 6 1020.0 1019.3 0.0
22/05:30pm 28.8 25.1 2.1 18 13.2 S 11 20 6 11 1019.9 1019.2 0.0
22/05:00pm 28.3 23.9 2.5 19 12.8 SSW 15 22 8 12 1019.8 1019.1 0.0
22/04:30pm 29.0 25.8 3.1 19 13.1 NNE 9 15 5 8 1020.0 1019.3 0.0
22/04:00pm 28.9 25.3 3.0 19 13.0 S 11 24 6 13 1020.2 1019.5 0.0
22/03:30pm 28.7 24.1 3.5 20 12.8 SSE 17 28 9 15 1020.5 1019.8 0.0
22/03:00pm 28.6 25.2 4.2 21 12.5 E 11 17 6 9 1021.0 1020.3 0.0
22/02:30pm 27.8 24.9 4.8 23 11.9 SSE 9 17 5 9 1021.6 1020.9 0.0
22/02:00pm 27.9 24.7 4.9 23 11.9 ENE 11 17 6 9 1022.2 1021.5 0.0
22/01:30pm 26.9 23.6 4.6 24 11.4 NNE 11 17 6 9 1022.7 1022.0 0.0
22/01:00pm 25.7 23.6 5.8 28 10.3 E 6 13 3 7 1023.3 1022.6 0.0
22/12:30pm 25.4 23.0 7.1 31 9.7 NE 9 17 5 9 1023.7 1023.0 0.0
22/12:00pm 24.5 21.0 7.2 33 9.1 NNW 15 24 8 13 1024.4 1023.7 0.0
22/11:30am 23.2 19.4 7.7 37 8.2 NNE 17 26 9 14 1025.0 1024.3 0.0
22/11:00am 23.0 19.3 7.9 38 8.0 NNE 17 26 9 14 1025.5 1024.9 0.0
22/10:30am 22.0 17.9 8.5 42 7.2 NNE 20 28 11 15 1025.9 1025.3 0.0
22/10:00am 21.3 17.2 8.6 44 6.7 NNE 20 30 11 16 1026.1 1025.5 0.0
22/09:30am 20.1 15.4 9.1 49 5.9 NNE 24 32 13 17 1026.1 1025.5 0.0
22/09:00am 19.2 14.4 8.8 51 5.5 NNE 24 33 13 18 1026.1 1025.5 0.0
22/08:30am 18.5 14.6 8.7 53 5.1 NNE 19 26 10 14 1026.0 1025.4 0.0
22/08:00am 17.4 14.1 8.0 54 4.8 NE 15 20 8 11 1025.8 1025.2 0.0
22/07:30am 16.4 12.8 6.8 53 4.8 NE 15 19 8 10 1025.5 1024.9 0.0
22/07:00am 15.2 11.5 6.5 56 4.3 NE 15 17 8 9 1025.1 1024.4 0.0
22/06:30am 14.3 10.9 5.7 56 4.1 ENE 13 15 7 8 1024.9 1024.2 0.0
22/06:00am 14.6 10.8 5.9 56 4.2 NE 15 15 8 8 1024.4 1023.7 0.0
22/05:30am 15.0 12.0 5.8 54 4.4 ENE 11 13 6 7 1024.3 1023.6 0.0
22/05:00am 15.5 12.1 5.7 52 4.7 NE 13 15 7 8 1023.9 1023.2 0.0
22/04:30am 16.6 13.2 6.1 50 5.2 NE 13 15 7 8 1023.5 1022.8 0.0
22/04:00am 16.9 13.0 5.5 47 5.5 NE 15 19 8 10 1023.3 1022.6 0.0
22/03:30am 17.4 12.7 5.0 44 6.0 NE 19 24 10 13 1023.2 1022.5 0.0
22/03:00am 17.7 12.6 3.9 40 6.5 NE 20 26 11 14 1023.1 1022.4 0.0
22/02:30am 18.5 13.6 4.3 39 6.8 NE 19 26 10 14 1023.0 1022.3 0.0
22/02:00am 18.8 13.6 2.6 34 7.5 NE 19 22 10 12 1022.9 1022.2 0.0
22/01:30am 19.3 12.7 1.8 31 8.1 NNE 26 32 14 17 1023.0 1022.3 0.0
22/01:00am 19.5 13.7 0.0 27 8.6 NE 20 24 11 13 1023.1 1022.4 0.0
22/12:30am 16.6 10.4 -5.2 22 8.5 E 19 22 10 12 1023.1 1022.4 0.0
22/12:00am 19.4 14.3 -4.8 19 9.7 SE 13 15 7 8 1022.7 1022.0 0.0
 
Date/Time
EDT
Temp
°C
App
Temp
°C
Dew
Point
°C
Rel
Hum
%
Delta-T
°C
Wind Press
QNH
hPa
Press
MSL
hPa
Rain since
9am
mm
Dir  Spd
km/h
Gust
km/h
Spd
kts
Gust
kts
21/11:30pm 18.7 13.6 -5.4 19 9.5 SSE 13 13 7 7 1022.6 1021.9 0.0
21/11:00pm 19.7 15.5 -3.9 20 9.7 S 9 11 5 6 1022.5 1021.8 0.0
21/10:30pm 20.1 16.1 -2.3 22 9.6 S 9 11 5 6 1022.5 1021.8 0.0
21/10:00pm 20.4 18.1 0.3 26 9.0 S 2 11 1 6 1022.6 1021.9 0.0
21/09:30pm 20.0 17.2 1.9 30 8.4 NNE 6 7 3 4 1022.5 1021.8 0.0
21/09:00pm 21.0 18.7 2.8 30 8.6 NW 4 9 2 5 1022.4 1021.7 0.0
21/08:30pm 22.4 19.5 2.5 27 9.5 SW 7 11 4 6 1022.1 1021.4 0.0
21/08:00pm 23.1 19.6 1.5 24 10.1 WSW 9 11 5 6 1021.9 1021.2 0.0
21/07:30pm 24.9 21.4 1.1 21 11.3 SW 9 11 5 6 1021.7 1021.0 0.0
21/07:00pm 26.4 22.8 0.9 19 12.1 SSE 9 11 5 6 1021.3 1020.6 0.0
21/06:30pm 27.3 23.9 1.7 19 12.5 SSW 9 11 5 6 1021.0 1020.3 0.0
21/06:00pm 27.3 23.1 1.7 19 12.4 SSW 13 24 7 13 1020.9 1020.2 0.0
21/05:30pm 28.0 23.4 1.5 18 12.9 SSW 15 30 8 16 1020.7 1020.0 0.0
21/05:00pm 28.2 24.0 1.7 18 13.0 SW 13 22 7 12 1020.7 1020.0 0.0
21/04:30pm 28.4 24.2 1.8 18 13.1 SSW 13 24 7 13 1020.8 1020.1 0.0
21/04:00pm 27.9 24.0 1.4 18 12.9 SSW 11 17 6 9 1021.0 1020.3 0.0
21/03:30pm 27.2 23.4 1.6 19 12.5 NE 11 24 6 13 1021.3 1020.6 0.0
21/03:00pm 26.6 22.9 2.5 21 11.8 S 11 22 6 12 1021.8 1021.1 0.0
21/02:30pm 28.2 24.9 4.5 22 12.2 NNW 11 15 6 8 1022.2 1021.5 0.0
21/02:00pm 27.1 24.5 4.2 23 11.6 E 7 19 4 10 1022.7 1022.0 0.0
21/01:30pm 26.1 23.2 4.6 25 11.0 W 9 17 5 9 1023.0 1022.3 0.0
21/01:00pm 25.7 21.7 4.8 26 10.6 E 15 28 8 15 1023.3 1022.6 0.0

Other formats

Comma delimited format used in spreadsheet applications
http://www.bom.gov.au/fwo/IDN60801/IDN60801.95527.axf

JavaScript Object Notation format (JSON) in row-major order
http://www.bom.gov.au/fwo/IDN60801/IDN60801.95527.json

Data quality

Most of these data are generated automatically and are frequently updated. Quality checks on data are not normally performed. It is possible for incorrect values to appear. Refer to information at About Latest Weather Observations and please check the disclaimer before using these data.